createdAt,value
2023-02-27T00:01:08.206Z,-6.00
2023-02-27T00:16:15.475Z,-6.10
2023-02-27T00:18:42.439Z,-6.20
2023-02-27T00:21:16.483Z,-6.10
2023-02-27T00:23:43.451Z,-6.10
2023-02-27T00:31:18.490Z,-6.10
2023-02-27T00:36:25.725Z,-6.10
2023-02-27T00:38:59.468Z,-6.10
2023-02-27T00:46:41.523Z,-6.10
2023-02-27T00:49:15.454Z,-6.10
2023-02-27T07:30:30.661Z,-5.10
2023-02-27T07:33:04.587Z,-5.10
2023-02-27T07:35:33.110Z,-5.00
2023-02-27T07:38:06.551Z,-5.20
2023-02-27T07:40:40.586Z,-4.80
2023-02-27T07:43:21.576Z,-4.60
2023-02-27T07:45:55.982Z,-4.80
2023-02-27T07:48:29.583Z,-4.50
2023-02-27T07:50:57.267Z,-4.60
2023-02-27T07:55:59.814Z,-4.50
2023-02-27T07:58:33.592Z,-4.30
2023-02-27T08:01:01.145Z,-4.40
2023-02-27T08:06:02.746Z,-4.10
2023-02-27T08:08:36.571Z,-3.90
2023-02-27T08:11:03.917Z,-3.90
2023-02-27T08:21:30.465Z,-3.50
2023-02-27T08:24:06.821Z,-3.20
2023-02-27T08:26:34.307Z,-3.20
2023-02-27T08:29:08.563Z,-2.90
2023-02-27T08:31:36.410Z,-2.90
2023-02-27T08:34:11.064Z,-2.60
2023-02-27T08:36:46.571Z,-2.60
2023-02-27T08:39:13.963Z,-2.40
2023-02-27T08:41:48.546Z,-2.20
2023-02-27T08:44:22.432Z,-2.30
2023-02-27T08:47:02.825Z,-2.10
2023-02-27T08:49:36.590Z,-1.90
2023-02-27T08:52:05.788Z,-1.70
2023-02-27T08:54:39.632Z,-1.80
2023-02-27T08:57:06.930Z,-1.80
2023-02-27T08:59:40.665Z,-1.80
2023-02-27T09:07:10.972Z,-1.60
2023-02-27T09:09:44.575Z,-1.40
2023-02-27T09:12:23.061Z,-1.40
2023-02-27T09:17:24.886Z,-1.00
2023-02-27T09:19:58.567Z,-0.50
2023-02-27T09:22:25.824Z,-0.30
2023-02-27T09:24:59.588Z,-0.30
2023-02-27T09:27:26.856Z,-0.50
2023-02-27T09:30:02.553Z,-0.50
2023-02-27T09:32:36.630Z,-0.20
2023-02-27T09:35:10.558Z,0.10
2023-02-27T09:37:37.565Z,-0.10
2023-02-27T09:40:13.567Z,-0.20
2023-02-27T09:42:51.663Z,-0.20
2023-02-27T09:45:33.613Z,-0.10
2023-02-27T09:48:21.122Z,-0.10
2023-02-27T09:50:59.638Z,0.30
2023-02-27T09:53:36.204Z,0.70
2023-02-27T09:56:38.571Z,0.90
2023-02-27T09:59:36.538Z,0.70
2023-02-27T10:02:28.600Z,0.80
2023-02-27T10:05:36.631Z,0.80
2023-02-27T10:08:32.573Z,1.00
2023-02-27T10:11:18.594Z,1.30
2023-02-27T10:14:25.330Z,1.40
2023-02-27T10:17:01.652Z,0.90
2023-02-27T10:19:37.528Z,0.90
2023-02-27T10:22:20.612Z,0.80
2023-02-27T10:24:56.969Z,0.80
2023-02-27T10:27:30.516Z,0.60
2023-02-27T10:30:34.909Z,0.90
2023-02-27T10:33:44.500Z,1.40
2023-02-27T10:36:32.620Z,1.90
2023-02-27T10:39:15.607Z,2.00
2023-02-27T10:41:45.442Z,2.10
2023-02-27T10:44:25.582Z,2.20
2023-02-27T10:46:53.008Z,1.90
2023-02-27T10:49:29.540Z,2.10
2023-02-27T10:52:15.425Z,2.00
2023-02-27T10:54:50.521Z,1.90
2023-02-27T10:57:24.363Z,1.70
2023-02-27T11:00:06.510Z,1.60
2023-02-27T11:08:26.731Z,0.70
2023-02-27T11:11:20.900Z,0.80
2023-02-27T11:13:49.134Z,1.70
2023-02-27T11:16:27.955Z,2.30
2023-02-27T11:18:57.308Z,2.90
2023-02-27T11:21:35.934Z,2.80
2023-02-27T11:24:27.385Z,2.70
2023-02-27T11:27:12.971Z,1.90
2023-02-27T11:30:10.957Z,2.10
2023-02-27T11:32:51.447Z,2.80
2023-02-27T11:35:44.974Z,3.30
2023-02-27T11:38:31.054Z,2.90
2023-02-27T11:41:05.605Z,2.20
2023-02-27T11:44:06.918Z,1.60
2023-02-27T11:46:48.794Z,1.40
2023-02-27T11:49:43.909Z,1.40
2023-02-27T11:52:50.759Z,1.60
2023-02-27T11:55:31.972Z,1.50
2023-02-27T11:58:12.810Z,1.90
2023-02-27T12:01:00.943Z,2.80
2023-02-27T12:04:24.751Z,3.50
2023-02-27T12:07:22.947Z,3.70
2023-02-27T12:10:25.926Z,4.50
2023-02-27T20:45:05.565Z,-4.20
2023-02-27T20:47:39.473Z,-4.30
2023-02-27T20:50:07.198Z,-4.30
2023-02-27T20:52:40.447Z,-4.40
2023-02-27T20:55:07.964Z,-4.40
2023-02-27T20:57:41.446Z,-4.50
2023-02-27T21:00:12.408Z,-4.50
2023-02-27T21:02:45.430Z,-4.50
2023-02-27T21:05:12.391Z,-4.50
2023-02-27T21:07:45.450Z,-4.60
2023-02-27T21:10:13.764Z,-4.50
2023-02-27T21:12:47.447Z,-4.50
2023-02-27T21:15:21.458Z,-4.50
2023-02-27T21:17:54.406Z,-4.50
2023-02-27T21:20:21.378Z,-4.40
2023-02-27T21:22:55.434Z,-4.40
2023-02-27T21:25:33.496Z,-4.40
2023-02-27T21:28:09.484Z,-4.30
2023-02-27T21:30:37.432Z,-4.30
2023-02-27T21:33:11.432Z,-4.30
2023-02-27T21:35:38.415Z,-4.30
2023-02-27T21:38:11.578Z,-4.30
2023-02-27T21:40:45.439Z,-4.30
2023-02-27T21:43:19.479Z,-4.20
2023-02-27T21:46:27.472Z,-4.20
2023-02-27T21:49:01.455Z,-4.10
2023-02-27T21:51:39.419Z,-4.20
2023-02-27T21:54:17.415Z,-4.10
2023-02-27T21:56:54.623Z,-4.10
2023-02-27T21:59:28.482Z,-4.10
2023-02-27T22:02:03.480Z,-4.10
2023-02-27T22:04:31.618Z,-4.10
2023-02-27T22:07:05.456Z,-4.10
2023-02-27T22:09:32.534Z,-4.10
2023-02-27T22:11:59.425Z,-4.10
2023-02-27T22:14:32.436Z,-4.10
2023-02-27T22:17:05.415Z,-4.10
2023-02-27T22:19:39.517Z,-4.10
2023-02-27T22:22:06.519Z,-4.10
2023-02-27T22:24:42.509Z,-4.10
2023-02-27T22:27:09.468Z,-4.10
2023-02-27T22:29:45.456Z,-4.10
2023-02-27T22:32:12.362Z,-4.10
2023-02-27T22:34:45.485Z,-4.10
2023-02-27T22:37:15.090Z,-4.10
2023-02-27T22:39:48.460Z,-4.10
2023-02-27T22:42:22.440Z,-4.10
2023-02-27T22:45:02.508Z,-4.10
2023-02-27T22:47:35.598Z,-4.10
2023-02-27T22:50:10.495Z,-4.10
2023-02-27T22:52:37.854Z,-4.10
2023-02-27T22:55:11.458Z,-4.10
2023-02-27T22:57:46.454Z,-4.10
2023-02-27T23:00:20.501Z,-4.20
2023-02-27T23:02:53.452Z,-4.20
2023-02-27T23:05:20.408Z,-4.20
2023-02-27T23:07:53.437Z,-4.30
2023-02-27T23:10:20.352Z,-4.30
2023-02-27T23:12:53.460Z,-4.40
2023-02-27T23:15:26.480Z,-4.50
2023-02-27T23:17:58.415Z,-4.70
2023-02-27T23:20:32.473Z,-4.80
2023-02-27T23:22:59.412Z,-4.80
2023-02-27T23:25:33.470Z,-4.90
2023-02-27T23:28:07.521Z,-5.00
2023-02-27T23:30:34.843Z,-5.10
2023-02-27T23:33:08.449Z,-5.20
2023-02-27T23:35:35.422Z,-5.20
2023-02-27T23:38:08.453Z,-5.20
2023-02-27T23:40:36.446Z,-5.20
2023-02-27T23:43:09.460Z,-5.20
2023-02-27T23:45:43.386Z,-5.30
2023-02-27T23:48:17.455Z,-5.40
2023-02-27T23:50:51.448Z,-5.50
2023-02-27T23:53:19.007Z,-5.50
2023-02-27T23:55:52.457Z,-5.50
2023-02-27T23:58:19.382Z,-5.50
